This is the latest recevied weather packets stored in our database for station/object KJ4AJP. If no packets are shown the sender has not sent any weather packets the latest 10 day(s).
| Time | Temp. | Humidity | Pressure | Rain* | Wind** | Luminosity | Snow |
|---|---|---|---|---|---|---|---|
| 1777743884 | 18.89° C | 39% | 1017.1 hPa | 0 mm | - | 213 W/m² | - |
| 1777743580 | 19.44° C | 38% | 1017.1 hPa | 0 mm | - | 174 W/m² | - |
| 1777743277 | 19.44° C | 42% | 1016.9 hPa | 0 mm | - | 297 W/m² | - |
| 1777742975 | 18.89° C | 41% | 1017 hPa | 0 mm | - | 324 W/m² | - |
| 1777742672 | 18.89° C | 40% | 1017.1 hPa | 0 mm | - | 248 W/m² | - |
| 1777742368 | 20° C | 39% | 1017.3 hPa | 0 mm | - | 558 W/m² | - |
| 1777742064 | 20° C | 46% | 1017.3 hPa | 0 mm | - | 661 W/m² | - |
| 1777741762 | 18.89° C | 45% | 1017.4 hPa | 0 mm | - | 820 W/m² | - |
| 1777741458 | 18.89° C | 43% | 1017.4 hPa | 0 mm | - | 736 W/m² | - |
| 1777741154 | 20° C | 38% | 1017.6 hPa | 0 mm | - | 885 W/m² | - |
| 1777740852 | 18.89° C | 41% | 1017.7 hPa | 0 mm | - | 823 W/m² | - |
| 1777740548 | 18.89° C | 40% | 1017.6 hPa | 0 mm | - | 739 W/m² | - |
| 1777740245 | 19.44° C | 40% | 1017.6 hPa | 0 mm | - | 743 W/m² | - |
| 1777739941 | 18.89° C | 41% | 1017.8 hPa | 0 mm | - | 741 W/m² | - |
| 1777739637 | 17.78° C | 46% | 1017.9 hPa | 0 mm | - | 754 W/m² | - |
| 1777739335 | 17.22° C | 45% | 1018 hPa | 0 mm | - | 600 W/m² | - |
| 1777739031 | 17.78° C | 40% | 1018 hPa | 0 mm | - | 276 W/m² | - |
| 1777738729 | 18.33° C | 39% | 1018 hPa | 0 mm | - | 327 W/m² | - |
| 1777738425 | 18.89° C | 41% | 1018 hPa | 0 mm | - | 332 W/m² | - |
| 1777738123 | 17.78° C | 43% | 1018 hPa | 0 mm | - | 982 W/m² | - |
| 1777737821 | 17.22° C | 43% | 1017.9 hPa | 0 mm | - | 618 W/m² | - |
| 1777737520 | 17.78° C | 40% | 1018.3 hPa | 0 mm | - | 259 W/m² | - |
| 1777737217 | 18.33° C | 40% | 1018 hPa | 0 mm | - | 235 W/m² | - |
| 1777736913 | 17.78° C | 42% | 1018 hPa | 0 mm | - | 362 W/m² | - |
| 1777736305 | 16.67° C | 45% | 1018.2 hPa | 0 mm | - | 259 W/m² | - |
* Rain latest hour (hover to see other rain measurements)
** Current wind speed in m/s (hover to see current wind gust speed)